sensor_id;sensor_type;location;lat;lon;timestamp;P1;durP1;ratioP1;P2;durP2;ratioP2
17055;SDS011;8644;50.222;9.264;2022-08-27T00:01:07;3.78;;;2.72;;
17055;SDS011;8644;50.222;9.264;2022-08-27T00:03:34;1.45;;;1.35;;
17055;SDS011;8644;50.222;9.264;2022-08-27T00:06:00;1.95;;;1.75;;
17055;SDS011;8644;50.222;9.264;2022-08-27T00:08:27;2.25;;;2.03;;
17055;SDS011;8644;50.222;9.264;2022-08-27T00:10:54;3.15;;;2.55;;
17055;SDS011;8644;50.222;9.264;2022-08-27T00:13:20;6.35;;;3.25;;
17055;SDS011;8644;50.222;9.264;2022-08-27T00:15:47;5.30;;;2.67;;
17055;SDS011;8644;50.222;9.264;2022-08-27T00:18:15;6.07;;;2.53;;
17055;SDS011;8644;50.222;9.264;2022-08-27T00:20:41;3.00;;;2.38;;
17055;SDS011;8644;50.222;9.264;2022-08-27T00:23:08;5.45;;;3.25;;
17055;SDS011;8644;50.222;9.264;2022-08-27T00:25:35;3.75;;;2.38;;
17055;SDS011;8644;50.222;9.264;2022-08-27T00:28:02;2.85;;;2.53;;
17055;SDS011;8644;50.222;9.264;2022-08-27T00:30:29;3.40;;;2.22;;
17055;SDS011;8644;50.222;9.264;2022-08-27T00:32:56;4.28;;;3.20;;
17055;SDS011;8644;50.222;9.264;2022-08-27T00:35:24;6.93;;;4.10;;
17055;SDS011;8644;50.222;9.264;2022-08-27T00:37:51;1.92;;;1.83;;
17055;SDS011;8644;50.222;9.264;2022-08-27T00:40:18;3.60;;;1.95;;
17055;SDS011;8644;50.222;9.264;2022-08-27T00:42:46;3.58;;;2.97;;
17055;SDS011;8644;50.222;9.264;2022-08-27T00:45:13;4.10;;;2.47;;
17055;SDS011;8644;50.222;9.264;2022-08-27T00:47:42;8.90;;;1.70;;
17055;SDS011;8644;50.222;9.264;2022-08-27T00:50:10;2.47;;;2.30;;
17055;SDS011;8644;50.222;9.264;2022-08-27T00:52:40;6.07;;;3.25;;
17055;SDS011;8644;50.222;9.264;2022-08-27T00:55:09;3.78;;;3.13;;
17055;SDS011;8644;50.222;9.264;2022-08-27T00:57:37;5.15;;;2.80;;
17055;SDS011;8644;50.222;9.264;2022-08-27T01:00:05;3.10;;;2.08;;
17055;SDS011;8644;50.222;9.264;2022-08-27T01:02:34;3.10;;;2.17;;
17055;SDS011;8644;50.222;9.264;2022-08-27T01:05:02;4.78;;;3.17;;
17055;SDS011;8644;50.222;9.264;2022-08-27T01:07:30;5.38;;;3.95;;
17055;SDS011;8644;50.222;9.264;2022-08-27T01:10:00;4.13;;;3.33;;
17055;SDS011;8644;50.222;9.264;2022-08-27T01:12:28;4.07;;;2.90;;
17055;SDS011;8644;50.222;9.264;2022-08-27T01:14:55;2.67;;;2.47;;
17055;SDS011;8644;50.222;9.264;2022-08-27T01:17:22;5.40;;;4.00;;
17055;SDS011;8644;50.222;9.264;2022-08-27T01:19:49;1.70;;;1.40;;
17055;SDS011;8644;50.222;9.264;2022-08-27T01:22:20;5.50;;;2.38;;
17055;SDS011;8644;50.222;9.264;2022-08-27T01:24:50;2.20;;;2.00;;
17055;SDS011;8644;50.222;9.264;2022-08-27T01:27:17;2.38;;;2.17;;
17055;SDS011;8644;50.222;9.264;2022-08-27T01:29:44;4.70;;;3.15;;
17055;SDS011;8644;50.222;9.264;2022-08-27T01:32:12;15.70;;;3.63;;
17055;SDS011;8644;50.222;9.264;2022-08-27T01:34:39;4.15;;;3.08;;
17055;SDS011;8644;50.222;9.264;2022-08-27T01:37:06;8.30;;;2.05;;
17055;SDS011;8644;50.222;9.264;2022-08-27T01:39:33;10.52;;;3.35;;
17055;SDS011;8644;50.222;9.264;2022-08-27T01:42:05;7.22;;;3.13;;
17055;SDS011;8644;50.222;9.264;2022-08-27T01:44:40;4.82;;;3.00;;
17055;SDS011;8644;50.222;9.264;2022-08-27T01:47:07;2.95;;;2.67;;
17055;SDS011;8644;50.222;9.264;2022-08-27T01:49:34;3.40;;;3.00;;
17055;SDS011;8644;50.222;9.264;2022-08-27T01:52:00;3.45;;;2.72;;
17055;SDS011;8644;50.222;9.264;2022-08-27T01:54:27;11.00;;;2.85;;
17055;SDS011;8644;50.222;9.264;2022-08-27T01:56:55;3.60;;;3.15;;
17055;SDS011;8644;50.222;9.264;2022-08-27T01:59:23;6.20;;;3.40;;
17055;SDS011;8644;50.222;9.264;2022-08-27T02:01:50;4.85;;;2.90;;
17055;SDS011;8644;50.222;9.264;2022-08-27T02:04:17;2.75;;;2.55;;
17055;SDS011;8644;50.222;9.264;2022-08-27T02:06:43;3.53;;;3.08;;
17055;SDS011;8644;50.222;9.264;2022-08-27T02:09:10;2.47;;;2.22;;
17055;SDS011;8644;50.222;9.264;2022-08-27T02:11:37;3.58;;;3.10;;
17055;SDS011;8644;50.222;9.264;2022-08-27T02:14:03;2.15;;;2.05;;
17055;SDS011;8644;50.222;9.264;2022-08-27T02:16:31;6.28;;;2.78;;
17055;SDS011;8644;50.222;9.264;2022-08-27T02:18:58;4.47;;;3.72;;
17055;SDS011;8644;50.222;9.264;2022-08-27T02:21:25;2.65;;;2.45;;
17055;SDS011;8644;50.222;9.264;2022-08-27T02:23:51;2.75;;;2.55;;
17055;SDS011;8644;50.222;9.264;2022-08-27T02:26:19;3.22;;;2.60;;
17055;SDS011;8644;50.222;9.264;2022-08-27T02:28:46;2.17;;;1.98;;
17055;SDS011;8644;50.222;9.264;2022-08-27T02:31:13;3.70;;;2.97;;
17055;SDS011;8644;50.222;9.264;2022-08-27T02:33:41;2.95;;;2.13;;
17055;SDS011;8644;50.222;9.264;2022-08-27T02:36:08;6.03;;;2.80;;
17055;SDS011;8644;50.222;9.264;2022-08-27T02:38:34;3.65;;;3.03;;
17055;SDS011;8644;50.222;9.264;2022-08-27T02:41:01;3.05;;;2.75;;
17055;SDS011;8644;50.222;9.264;2022-08-27T02:43:27;3.45;;;2.58;;
17055;SDS011;8644;50.222;9.264;2022-08-27T02:45:55;4.65;;;2.63;;
17055;SDS011;8644;50.222;9.264;2022-08-27T02:48:22;4.30;;;3.03;;
17055;SDS011;8644;50.222;9.264;2022-08-27T02:50:51;1.88;;;1.73;;
17055;SDS011;8644;50.222;9.264;2022-08-27T02:53:17;3.33;;;3.03;;
17055;SDS011;8644;50.222;9.264;2022-08-27T02:55:44;9.38;;;4.60;;
17055;SDS011;8644;50.222;9.264;2022-08-27T02:58:10;3.97;;;3.08;;
17055;SDS011;8644;50.222;9.264;2022-08-27T03:00:40;9.38;;;5.38;;
17055;SDS011;8644;50.222;9.264;2022-08-27T03:03:07;7.18;;;4.22;;
17055;SDS011;8644;50.222;9.264;2022-08-27T03:05:34;3.42;;;3.08;;
17055;SDS011;8644;50.222;9.264;2022-08-27T03:08:03;5.30;;;2.53;;
17055;SDS011;8644;50.222;9.264;2022-08-27T03:10:29;8.60;;;3.65;;
17055;SDS011;8644;50.222;9.264;2022-08-27T03:12:56;4.88;;;3.70;;
17055;SDS011;8644;50.222;9.264;2022-08-27T03:15:22;3.08;;;1.88;;
17055;SDS011;8644;50.222;9.264;2022-08-27T03:17:49;2.92;;;2.63;;
17055;SDS011;8644;50.222;9.264;2022-08-27T03:20:36;2.65;;;2.42;;
17055;SDS011;8644;50.222;9.264;2022-08-27T03:23:06;11.07;;;3.67;;
17055;SDS011;8644;50.222;9.264;2022-08-27T03:25:33;3.95;;;3.22;;
17055;SDS011;8644;50.222;9.264;2022-08-27T03:27:59;5.13;;;3.13;;
17055;SDS011;8644;50.222;9.264;2022-08-27T03:30:26;5.40;;;4.32;;
17055;SDS011;8644;50.222;9.264;2022-08-27T03:32:52;3.20;;;2.88;;
17055;SDS011;8644;50.222;9.264;2022-08-27T03:35:19;3.83;;;3.10;;
17055;SDS011;8644;50.222;9.264;2022-08-27T03:37:46;3.42;;;2.58;;
17055;SDS011;8644;50.222;9.264;2022-08-27T03:40:14;4.70;;;3.58;;
17055;SDS011;8644;50.222;9.264;2022-08-27T03:42:41;2.53;;;2.28;;
17055;SDS011;8644;50.222;9.264;2022-08-27T03:45:09;10.75;;;3.63;;
17055;SDS011;8644;50.222;9.264;2022-08-27T03:47:36;2.33;;;2.13;;
17055;SDS011;8644;50.222;9.264;2022-08-27T03:50:03;4.38;;;2.60;;
17055;SDS011;8644;50.222;9.264;2022-08-27T03:52:31;1.83;;;1.67;;
17055;SDS011;8644;50.222;9.264;2022-08-27T03:54:58;5.38;;;3.40;;
17055;SDS011;8644;50.222;9.264;2022-08-27T03:57:27;4.10;;;2.83;;
17055;SDS011;8644;50.222;9.264;2022-08-27T03:59:53;2.22;;;2.05;;
17055;SDS011;8644;50.222;9.264;2022-08-27T04:02:21;2.78;;;2.42;;
17055;SDS011;8644;50.222;9.264;2022-08-27T04:04:47;2.08;;;1.98;;
17055;SDS011;8644;50.222;9.264;2022-08-27T04:07:14;7.65;;;3.70;;
17055;SDS011;8644;50.222;9.264;2022-08-27T04:09:40;4.80;;;3.25;;
17055;SDS011;8644;50.222;9.264;2022-08-27T04:12:07;2.97;;;2.67;;
17055;SDS011;8644;50.222;9.264;2022-08-27T04:14:35;2.90;;;2.33;;
17055;SDS011;8644;50.222;9.264;2022-08-27T04:17:02;3.28;;;2.70;;
17055;SDS011;8644;50.222;9.264;2022-08-27T04:19:28;4.72;;;3.42;;
17055;SDS011;8644;50.222;9.264;2022-08-27T04:21:57;6.03;;;3.38;;
17055;SDS011;8644;50.222;9.264;2022-08-27T04:24:24;4.00;;;3.03;;
17055;SDS011;8644;50.222;9.264;2022-08-27T04:26:51;3.55;;;3.25;;
17055;SDS011;8644;50.222;9.264;2022-08-27T04:29:17;5.00;;;3.00;;
17055;SDS011;8644;50.222;9.264;2022-08-27T04:31:45;2.70;;;2.47;;
17055;SDS011;8644;50.222;9.264;2022-08-27T04:34:12;3.05;;;2.50;;
17055;SDS011;8644;50.222;9.264;2022-08-27T04:36:38;1.63;;;1.52;;
17055;SDS011;8644;50.222;9.264;2022-08-27T04:39:05;4.30;;;2.25;;
17055;SDS011;8644;50.222;9.264;2022-08-27T04:41:32;1.85;;;1.70;;
17055;SDS011;8644;50.222;9.264;2022-08-27T04:44:01;2.17;;;1.85;;
17055;SDS011;8644;50.222;9.264;2022-08-27T04:46:29;1.52;;;1.38;;
17055;SDS011;8644;50.222;9.264;2022-08-27T04:48:57;3.83;;;2.05;;
17055;SDS011;8644;50.222;9.264;2022-08-27T04:51:25;3.95;;;2.33;;
17055;SDS011;8644;50.222;9.264;2022-08-27T04:53:53;4.07;;;2.65;;
17055;SDS011;8644;50.222;9.264;2022-08-27T04:56:20;8.18;;;2.63;;
17055;SDS011;8644;50.222;9.264;2022-08-27T04:58:47;4.00;;;2.75;;
17055;SDS011;8644;50.222;9.264;2022-08-27T05:01:14;6.13;;;2.28;;
17055;SDS011;8644;50.222;9.264;2022-08-27T05:03:41;3.95;;;2.50;;
17055;SDS011;8644;50.222;9.264;2022-08-27T05:06:09;2.40;;;2.15;;
17055;SDS011;8644;50.222;9.264;2022-08-27T05:08:36;2.00;;;1.75;;
17055;SDS011;8644;50.222;9.264;2022-08-27T05:11:05;3.28;;;1.58;;
17055;SDS011;8644;50.222;9.264;2022-08-27T05:13:31;1.58;;;1.48;;
17055;SDS011;8644;50.222;9.264;2022-08-27T05:15:59;2.97;;;2.53;;
17055;SDS011;8644;50.222;9.264;2022-08-27T05:18:26;1.33;;;1.23;;
17055;SDS011;8644;50.222;9.264;2022-08-27T05:20:52;3.55;;;2.08;;
17055;SDS011;8644;50.222;9.264;2022-08-27T05:23:21;2.65;;;2.45;;
17055;SDS011;8644;50.222;9.264;2022-08-27T05:25:47;2.55;;;2.35;;
17055;SDS011;8644;50.222;9.264;2022-08-27T05:28:15;4.15;;;3.13;;
17055;SDS011;8644;50.222;9.264;2022-08-27T05:30:43;1.52;;;1.42;;
17055;SDS011;8644;50.222;9.264;2022-08-27T05:33:10;1.30;;;1.20;;
17055;SDS011;8644;50.222;9.264;2022-08-27T05:35:39;2.22;;;2.10;;
17055;SDS011;8644;50.222;9.264;2022-08-27T05:38:06;4.13;;;2.00;;
17055;SDS011;8644;50.222;9.264;2022-08-27T05:40:34;6.68;;;2.22;;
17055;SDS011;8644;50.222;9.264;2022-08-27T05:43:00;2.25;;;2.05;;
17055;SDS011;8644;50.222;9.264;2022-08-27T05:45:27;2.75;;;2.55;;
17055;SDS011;8644;50.222;9.264;2022-08-27T05:47:53;2.75;;;2.53;;
17055;SDS011;8644;50.222;9.264;2022-08-27T05:50:20;3.20;;;2.17;;
17055;SDS011;8644;50.222;9.264;2022-08-27T05:52:47;1.88;;;1.45;;
17055;SDS011;8644;50.222;9.264;2022-08-27T05:55:14;3.85;;;2.83;;
17055;SDS011;8644;50.222;9.264;2022-08-27T05:57:42;1.45;;;1.38;;
17055;SDS011;8644;50.222;9.264;2022-08-27T06:00:09;3.40;;;2.50;;
17055;SDS011;8644;50.222;9.264;2022-08-27T06:02:53;1.95;;;1.73;;
17055;SDS011;8644;50.222;9.264;2022-08-27T06:05:20;5.75;;;3.28;;
17055;SDS011;8644;50.222;9.264;2022-08-27T06:07:46;1.10;;;1.00;;
17055;SDS011;8644;50.222;9.264;2022-08-27T06:10:13;3.67;;;2.40;;
17055;SDS011;8644;50.222;9.264;2022-08-27T06:12:40;5.05;;;2.33;;
17055;SDS011;8644;50.222;9.264;2022-08-27T06:15:08;7.05;;;3.00;;
17055;SDS011;8644;50.222;9.264;2022-08-27T06:17:35;2.17;;;1.75;;
17055;SDS011;8644;50.222;9.264;2022-08-27T06:20:01;2.72;;;2.20;;
17055;SDS011;8644;50.222;9.264;2022-08-27T06:22:28;2.78;;;1.90;;
17055;SDS011;8644;50.222;9.264;2022-08-27T06:24:55;14.00;;;2.17;;
17055;SDS011;8644;50.222;9.264;2022-08-27T06:27:22;2.63;;;2.25;;
17055;SDS011;8644;50.222;9.264;2022-08-27T06:29:48;3.60;;;2.38;;
17055;SDS011;8644;50.222;9.264;2022-08-27T06:32:16;2.40;;;1.77;;
17055;SDS011;8644;50.222;9.264;2022-08-27T06:34:44;1.33;;;1.23;;
17055;SDS011;8644;50.222;9.264;2022-08-27T06:37:11;3.35;;;2.55;;
17055;SDS011;8644;50.222;9.264;2022-08-27T06:39:38;3.40;;;2.25;;
17055;SDS011;8644;50.222;9.264;2022-08-27T06:42:04;7.80;;;3.20;;
17055;SDS011;8644;50.222;9.264;2022-08-27T06:44:31;1.40;;;1.30;;
17055;SDS011;8644;50.222;9.264;2022-08-27T06:46:58;4.90;;;2.28;;
17055;SDS011;8644;50.222;9.264;2022-08-27T06:49:26;1.67;;;1.58;;
17055;SDS011;8644;50.222;9.264;2022-08-27T06:51:52;7.18;;;1.83;;
17055;SDS011;8644;50.222;9.264;2022-08-27T06:54:19;2.55;;;1.75;;
17055;SDS011;8644;50.222;9.264;2022-08-27T06:56:46;1.38;;;1.27;;
17055;SDS011;8644;50.222;9.264;2022-08-27T06:59:14;5.60;;;2.08;;
17055;SDS011;8644;50.222;9.264;2022-08-27T07:01:42;10.90;;;3.25;;
17055;SDS011;8644;50.222;9.264;2022-08-27T07:04:10;1.58;;;1.30;;
17055;SDS011;8644;50.222;9.264;2022-08-27T07:06:38;1.90;;;1.77;;
17055;SDS011;8644;50.222;9.264;2022-08-27T07:09:05;2.10;;;1.70;;
17055;SDS011;8644;50.222;9.264;2022-08-27T07:11:32;1.48;;;1.38;;
17055;SDS011;8644;50.222;9.264;2022-08-27T07:13:58;2.33;;;2.03;;
17055;SDS011;8644;50.222;9.264;2022-08-27T07:16:26;1.08;;;1.00;;
17055;SDS011;8644;50.222;9.264;2022-08-27T07:18:54;2.55;;;1.73;;
17055;SDS011;8644;50.222;9.264;2022-08-27T07:21:21;2.38;;;1.90;;
17055;SDS011;8644;50.222;9.264;2022-08-27T07:23:50;3.63;;;1.98;;
17055;SDS011;8644;50.222;9.264;2022-08-27T07:26:17;0.98;;;0.75;;
17055;SDS011;8644;50.222;9.264;2022-08-27T07:28:45;2.22;;;2.03;;
17055;SDS011;8644;50.222;9.264;2022-08-27T07:31:12;2.05;;;1.42;;
17055;SDS011;8644;50.222;9.264;2022-08-27T07:33:41;3.08;;;1.27;;
17055;SDS011;8644;50.222;9.264;2022-08-27T07:36:08;2.25;;;1.77;;
17055;SDS011;8644;50.222;9.264;2022-08-27T07:38:35;3.00;;;2.17;;
17055;SDS011;8644;50.222;9.264;2022-08-27T07:41:04;2.22;;;1.67;;
17055;SDS011;8644;50.222;9.264;2022-08-27T07:43:31;1.95;;;1.50;;
17055;SDS011;8644;50.222;9.264;2022-08-27T07:46:15;1.63;;;1.52;;
17055;SDS011;8644;50.222;9.264;2022-08-27T07:48:42;2.47;;;1.33;;
17055;SDS011;8644;50.222;9.264;2022-08-27T07:51:12;2.28;;;1.52;;
17055;SDS011;8644;50.222;9.264;2022-08-27T07:53:39;2.65;;;1.63;;
17055;SDS011;8644;50.222;9.264;2022-08-27T07:56:07;3.20;;;1.20;;
17055;SDS011;8644;50.222;9.264;2022-08-27T07:58:33;3.45;;;1.45;;
17055;SDS011;8644;50.222;9.264;2022-08-27T08:01:00;2.10;;;1.52;;
17055;SDS011;8644;50.222;9.264;2022-08-27T08:03:27;1.10;;;1.10;;
17055;SDS011;8644;50.222;9.264;2022-08-27T08:05:54;1.60;;;1.50;;
17055;SDS011;8644;50.222;9.264;2022-08-27T08:08:22;0.95;;;0.93;;
17055;SDS011;8644;50.222;9.264;2022-08-27T08:10:49;2.75;;;2.45;;
17055;SDS011;8644;50.222;9.264;2022-08-27T08:13:17;3.58;;;1.38;;
17055;SDS011;8644;50.222;9.264;2022-08-27T08:15:44;1.02;;;0.93;;
17055;SDS011;8644;50.222;9.264;2022-08-27T08:18:11;9.07;;;2.28;;
17055;SDS011;8644;50.222;9.264;2022-08-27T08:20:37;4.50;;;1.42;;
17055;SDS011;8644;50.222;9.264;2022-08-27T08:23:04;0.93;;;0.93;;
17055;SDS011;8644;50.222;9.264;2022-08-27T08:25:31;8.88;;;2.05;;
17055;SDS011;8644;50.222;9.264;2022-08-27T08:27:57;2.53;;;1.98;;
17055;SDS011;8644;50.222;9.264;2022-08-27T08:30:26;1.10;;;0.75;;
17055;SDS011;8644;50.222;9.264;2022-08-27T08:32:52;3.25;;;1.33;;
17055;SDS011;8644;50.222;9.264;2022-08-27T08:35:19;1.25;;;1.15;;
17055;SDS011;8644;50.222;9.264;2022-08-27T08:37:45;0.95;;;0.80;;
17055;SDS011;8644;50.222;9.264;2022-08-27T08:40:14;0.22;;;0.22;;
17055;SDS011;8644;50.222;9.264;2022-08-27T08:42:50;1.27;;;1.17;;
17055;SDS011;8644;50.222;9.264;2022-08-27T08:45:17;1.17;;;0.82;;
17055;SDS011;8644;50.222;9.264;2022-08-27T08:47:51;0.35;;;0.35;;
17055;SDS011;8644;50.222;9.264;2022-08-27T08:50:20;3.72;;;0.85;;
17055;SDS011;8644;50.222;9.264;2022-08-27T08:52:49;3.47;;;1.02;;
17055;SDS011;8644;50.222;9.264;2022-08-27T08:55:31;0.30;;;0.30;;
17055;SDS011;8644;50.222;9.264;2022-08-27T08:58:03;0.68;;;0.68;;
17055;SDS011;8644;50.222;9.264;2022-08-27T09:00:32;0.52;;;0.52;;
17055;SDS011;8644;50.222;9.264;2022-08-27T09:03:02;0.98;;;0.90;;
17055;SDS011;8644;50.222;9.264;2022-08-27T09:05:29;1.35;;;1.25;;
17055;SDS011;8644;50.222;9.264;2022-08-27T09:07:57;1.42;;;1.20;;
17055;SDS011;8644;50.222;9.264;2022-08-27T09:10:30;0.63;;;0.63;;
17055;SDS011;8644;50.222;9.264;2022-08-27T09:12:59;1.42;;;1.13;;
17055;SDS011;8644;50.222;9.264;2022-08-27T09:15:28;1.95;;;1.48;;
17055;SDS011;8644;50.222;9.264;2022-08-27T09:18:04;0.77;;;0.77;;
17055;SDS011;8644;50.222;9.264;2022-08-27T09:20:31;2.20;;;1.60;;
17055;SDS011;8644;50.222;9.264;2022-08-27T09:23:02;0.52;;;0.52;;
17055;SDS011;8644;50.222;9.264;2022-08-27T09:25:32;3.03;;;0.82;;
17055;SDS011;8644;50.222;9.264;2022-08-27T09:27:59;1.48;;;1.13;;
17055;SDS011;8644;50.222;9.264;2022-08-27T09:30:27;1.48;;;1.08;;
17055;SDS011;8644;50.222;9.264;2022-08-27T09:32:54;0.95;;;0.60;;
17055;SDS011;8644;50.222;9.264;2022-08-27T09:35:24;1.02;;;0.77;;
17055;SDS011;8644;50.222;9.264;2022-08-27T09:37:51;3.08;;;1.45;;
17055;SDS011;8644;50.222;9.264;2022-08-27T09:40:22;0.43;;;0.43;;
17055;SDS011;8644;50.222;9.264;2022-08-27T09:42:51;1.15;;;0.93;;
17055;SDS011;8644;50.222;9.264;2022-08-27T09:45:19;0.73;;;0.73;;
17055;SDS011;8644;50.222;9.264;2022-08-27T09:47:47;0.50;;;0.50;;
17055;SDS011;8644;50.222;9.264;2022-08-27T09:50:15;0.98;;;0.82;;
17055;SDS011;8644;50.222;9.264;2022-08-27T09:52:48;1.52;;;1.13;;
17055;SDS011;8644;50.222;9.264;2022-08-27T09:55:24;5.28;;;1.65;;
17055;SDS011;8644;50.222;9.264;2022-08-27T09:57:51;0.70;;;0.70;;
17055;SDS011;8644;50.222;9.264;2022-08-27T10:00:17;1.60;;;1.23;;
17055;SDS011;8644;50.222;9.264;2022-08-27T10:02:48;0.85;;;0.65;;
17055;SDS011;8644;50.222;9.264;2022-08-27T10:05:16;4.15;;;1.58;;
17055;SDS011;8644;50.222;9.264;2022-08-27T10:07:45;1.15;;;0.52;;
17055;SDS011;8644;50.222;9.264;2022-08-27T10:10:18;0.73;;;0.60;;
17055;SDS011;8644;50.222;9.264;2022-08-27T10:12:49;1.17;;;0.95;;
17055;SDS011;8644;50.222;9.264;2022-08-27T10:15:17;0.80;;;0.80;;
17055;SDS011;8644;50.222;9.264;2022-08-27T10:17:46;0.80;;;0.80;;
17055;SDS011;8644;50.222;9.264;2022-08-27T10:20:17;0.50;;;0.50;;
17055;SDS011;8644;50.222;9.264;2022-08-27T10:22:49;0.90;;;0.90;;
17055;SDS011;8644;50.222;9.264;2022-08-27T10:25:24;0.90;;;0.80;;
17055;SDS011;8644;50.222;9.264;2022-08-27T10:27:57;2.35;;;1.33;;
17055;SDS011;8644;50.222;9.264;2022-08-27T10:30:27;0.38;;;0.38;;
17055;SDS011;8644;50.222;9.264;2022-08-27T10:33:02;0.73;;;0.57;;
17055;SDS011;8644;50.222;9.264;2022-08-27T10:35:34;1.30;;;1.15;;
17055;SDS011;8644;50.222;9.264;2022-08-27T10:38:06;3.20;;;1.27;;
17055;SDS011;8644;50.222;9.264;2022-08-27T10:40:37;1.33;;;0.90;;
17055;SDS011;8644;50.222;9.264;2022-08-27T10:43:10;1.33;;;1.13;;
17055;SDS011;8644;50.222;9.264;2022-08-27T10:45:43;0.57;;;0.57;;
17055;SDS011;8644;50.222;9.264;2022-08-27T10:48:15;0.45;;;0.45;;
17055;SDS011;8644;50.222;9.264;2022-08-27T10:50:44;0.75;;;0.75;;
17055;SDS011;8644;50.222;9.264;2022-08-27T10:53:18;1.75;;;1.50;;
17055;SDS011;8644;50.222;9.264;2022-08-27T10:55:50;1.00;;;0.82;;
17055;SDS011;8644;50.222;9.264;2022-08-27T10:58:26;1.67;;;0.80;;
17055;SDS011;8644;50.222;9.264;2022-08-27T11:00:56;1.15;;;1.02;;
17055;SDS011;8644;50.222;9.264;2022-08-27T11:03:25;4.53;;;1.27;;
17055;SDS011;8644;50.222;9.264;2022-08-27T11:05:53;1.13;;;1.02;;
17055;SDS011;8644;50.222;9.264;2022-08-27T11:08:23;1.85;;;0.77;;
17055;SDS011;8644;50.222;9.264;2022-08-27T11:10:53;0.85;;;0.85;;
17055;SDS011;8644;50.222;9.264;2022-08-27T11:13:22;0.65;;;0.50;;
17055;SDS011;8644;50.222;9.264;2022-08-27T11:15:55;2.50;;;1.50;;
17055;SDS011;8644;50.222;9.264;2022-08-27T11:18:23;2.00;;;1.67;;
17055;SDS011;8644;50.222;9.264;2022-08-27T11:20:55;1.27;;;1.10;;
17055;SDS011;8644;50.222;9.264;2022-08-27T11:23:24;1.05;;;0.75;;
17055;SDS011;8644;50.222;9.264;2022-08-27T11:25:54;1.08;;;0.98;;
17055;SDS011;8644;50.222;9.264;2022-08-27T11:28:22;1.38;;;0.75;;
17055;SDS011;8644;50.222;9.264;2022-08-27T11:30:53;1.30;;;1.20;;
17055;SDS011;8644;50.222;9.264;2022-08-27T11:33:23;1.15;;;1.10;;
17055;SDS011;8644;50.222;9.264;2022-08-27T11:35:55;1.30;;;1.13;;
17055;SDS011;8644;50.222;9.264;2022-08-27T11:38:33;0.32;;;0.32;;
17055;SDS011;8644;50.222;9.264;2022-08-27T11:41:09;3.53;;;1.50;;
17055;SDS011;8644;50.222;9.264;2022-08-27T11:43:39;1.75;;;1.20;;
17055;SDS011;8644;50.222;9.264;2022-08-27T11:46:09;1.40;;;1.30;;
17055;SDS011;8644;50.222;9.264;2022-08-27T11:48:37;4.43;;;2.30;;
17055;SDS011;8644;50.222;9.264;2022-08-27T11:51:05;0.75;;;0.75;;
17055;SDS011;8644;50.222;9.264;2022-08-27T11:53:33;4.13;;;1.75;;
17055;SDS011;8644;50.222;9.264;2022-08-27T11:58:46;1.20;;;1.10;;
17055;SDS011;8644;50.222;9.264;2022-08-27T12:01:14;0.85;;;0.73;;
17055;SDS011;8644;50.222;9.264;2022-08-27T12:03:40;0.88;;;0.77;;
17055;SDS011;8644;50.222;9.264;2022-08-27T12:06:19;1.00;;;0.88;;
17055;SDS011;8644;50.222;9.264;2022-08-27T12:08:46;2.60;;;1.27;;
17055;SDS011;8644;50.222;9.264;2022-08-27T12:11:23;0.70;;;0.70;;
17055;SDS011;8644;50.222;9.264;2022-08-27T12:13:56;0.60;;;0.60;;
17055;SDS011;8644;50.222;9.264;2022-08-27T12:16:29;2.63;;;1.67;;
17055;SDS011;8644;50.222;9.264;2022-08-27T12:19:00;1.55;;;1.30;;
17055;SDS011;8644;50.222;9.264;2022-08-27T12:21:31;2.55;;;1.38;;
17055;SDS011;8644;50.222;9.264;2022-08-27T12:24:03;1.95;;;1.10;;
17055;SDS011;8644;50.222;9.264;2022-08-27T12:26:33;0.95;;;0.93;;
17055;SDS011;8644;50.222;9.264;2022-08-27T12:31:47;2.08;;;1.08;;
17055;SDS011;8644;50.222;9.264;2022-08-27T12:34:14;1.15;;;0.88;;
17055;SDS011;8644;50.222;9.264;2022-08-27T12:36:40;0.80;;;0.73;;
17055;SDS011;8644;50.222;9.264;2022-08-27T12:39:10;1.20;;;1.10;;
17055;SDS011;8644;50.222;9.264;2022-08-27T12:41:43;0.75;;;0.60;;
17055;SDS011;8644;50.222;9.264;2022-08-27T12:44:11;1.05;;;0.98;;
17055;SDS011;8644;50.222;9.264;2022-08-27T12:46:42;1.15;;;1.05;;
17055;SDS011;8644;50.222;9.264;2022-08-27T12:49:13;4.40;;;1.52;;
17055;SDS011;8644;50.222;9.264;2022-08-27T12:51:43;1.58;;;0.82;;
17055;SDS011;8644;50.222;9.264;2022-08-27T12:54:11;0.50;;;0.50;;
17055;SDS011;8644;50.222;9.264;2022-08-27T12:56:50;2.13;;;1.58;;
17055;SDS011;8644;50.222;9.264;2022-08-27T12:59:34;2.78;;;1.30;;
17055;SDS011;8644;50.222;9.264;2022-08-27T13:02:04;0.85;;;0.65;;
17055;SDS011;8644;50.222;9.264;2022-08-27T13:04:36;0.40;;;0.40;;
17055;SDS011;8644;50.222;9.264;2022-08-27T13:07:04;1.10;;;1.00;;
17055;SDS011;8644;50.222;9.264;2022-08-27T13:09:32;1.58;;;1.27;;
17055;SDS011;8644;50.222;9.264;2022-08-27T13:11:59;2.00;;;1.45;;
17055;SDS011;8644;50.222;9.264;2022-08-27T13:14:33;3.38;;;1.65;;
17055;SDS011;8644;50.222;9.264;2022-08-27T13:17:02;0.68;;;0.68;;
17055;SDS011;8644;50.222;9.264;2022-08-27T13:19:31;1.73;;;0.98;;
17055;SDS011;8644;50.222;9.264;2022-08-27T13:22:00;1.50;;;1.40;;
17055;SDS011;8644;50.222;9.264;2022-08-27T13:24:29;1.45;;;1.10;;
17055;SDS011;8644;50.222;9.264;2022-08-27T13:26:56;1.27;;;1.17;;
17055;SDS011;8644;50.222;9.264;2022-08-27T13:29:23;1.42;;;1.33;;
17055;SDS011;8644;50.222;9.264;2022-08-27T13:31:50;2.00;;;1.45;;
17055;SDS011;8644;50.222;9.264;2022-08-27T13:34:18;0.93;;;0.90;;
17055;SDS011;8644;50.222;9.264;2022-08-27T13:36:50;3.10;;;1.55;;
17055;SDS011;8644;50.222;9.264;2022-08-27T13:39:20;2.13;;;1.40;;
17055;SDS011;8644;50.222;9.264;2022-08-27T13:41:47;1.05;;;0.68;;
17055;SDS011;8644;50.222;9.264;2022-08-27T13:44:16;0.80;;;0.80;;
17055;SDS011;8644;50.222;9.264;2022-08-27T13:46:45;1.48;;;1.13;;
17055;SDS011;8644;50.222;9.264;2022-08-27T13:49:13;5.03;;;1.65;;
17055;SDS011;8644;50.222;9.264;2022-08-27T13:51:42;1.73;;;1.40;;
17055;SDS011;8644;50.222;9.264;2022-08-27T13:54:10;3.00;;;1.20;;
17055;SDS011;8644;50.222;9.264;2022-08-27T13:56:54;1.13;;;1.02;;
17055;SDS011;8644;50.222;9.264;2022-08-27T13:59:23;0.93;;;0.88;;
17055;SDS011;8644;50.222;9.264;2022-08-27T14:01:53;5.53;;;1.63;;
17055;SDS011;8644;50.222;9.264;2022-08-27T14:04:21;1.25;;;1.08;;
17055;SDS011;8644;50.222;9.264;2022-08-27T14:06:48;20.00;;;2.88;;
17055;SDS011;8644;50.222;9.264;2022-08-27T14:09:15;0.73;;;0.73;;
17055;SDS011;8644;50.222;9.264;2022-08-27T14:11:43;1.50;;;0.90;;
17055;SDS011;8644;50.222;9.264;2022-08-27T14:14:10;3.40;;;1.65;;
17055;SDS011;8644;50.222;9.264;2022-08-27T14:16:37;2.10;;;1.40;;
17055;SDS011;8644;50.222;9.264;2022-08-27T14:19:05;3.28;;;1.73;;
17055;SDS011;8644;50.222;9.264;2022-08-27T14:21:33;0.60;;;0.60;;
17055;SDS011;8644;50.222;9.264;2022-08-27T14:24:00;3.47;;;1.38;;
17055;SDS011;8644;50.222;9.264;2022-08-27T14:26:26;1.13;;;1.02;;
17055;SDS011;8644;50.222;9.264;2022-08-27T14:28:54;1.15;;;1.05;;
17055;SDS011;8644;50.222;9.264;2022-08-27T14:31:21;1.77;;;1.05;;
17055;SDS011;8644;50.222;9.264;2022-08-27T14:33:48;1.10;;;1.00;;
17055;SDS011;8644;50.222;9.264;2022-08-27T14:36:16;2.03;;;1.08;;
17055;SDS011;8644;50.222;9.264;2022-08-27T14:38:44;2.05;;;1.67;;
17055;SDS011;8644;50.222;9.264;2022-08-27T14:41:11;1.13;;;0.98;;
17055;SDS011;8644;50.222;9.264;2022-08-27T14:43:38;3.40;;;1.38;;
17055;SDS011;8644;50.222;9.264;2022-08-27T14:46:06;3.35;;;1.80;;
17055;SDS011;8644;50.222;9.264;2022-08-27T14:48:36;0.98;;;0.45;;
17055;SDS011;8644;50.222;9.264;2022-08-27T14:51:06;2.65;;;1.58;;
17055;SDS011;8644;50.222;9.264;2022-08-27T14:53:34;3.08;;;1.20;;
17055;SDS011;8644;50.222;9.264;2022-08-27T14:56:01;1.85;;;0.65;;
17055;SDS011;8644;50.222;9.264;2022-08-27T14:58:28;0.98;;;0.95;;
17055;SDS011;8644;50.222;9.264;2022-08-27T15:00:54;2.47;;;1.45;;
17055;SDS011;8644;50.222;9.264;2022-08-27T15:03:23;2.70;;;1.67;;
17055;SDS011;8644;50.222;9.264;2022-08-27T15:05:50;0.77;;;0.77;;
17055;SDS011;8644;50.222;9.264;2022-08-27T15:08:19;0.90;;;0.60;;
17055;SDS011;8644;50.222;9.264;2022-08-27T15:10:45;1.35;;;1.25;;
17055;SDS011;8644;50.222;9.264;2022-08-27T15:13:12;0.47;;;0.47;;